Time;durP1;ratioP1;P1;durP2;ratioP2;P2;SDS_P1;SDS_P2;PMS_P1;PMS_P2;Temp;Humidity;BMP_temperature;BMP_pressure;BME280_temperature;BME280_humidity;BME280_pressure;Samples;Min_cycle;Max_cycle;Signal;HPM_P1;HPM_P2
2023/03/26 00:01:37;;;;;;;13.40;12.00;;;;;;;11.04;95.53;98105.53;109322;1254;60232;-80
2023/03/26 00:04:05;;;;;;;16.60;12.40;;;;;;;11.02;95.77;98104.79;109369;1254;73631;-80
2023/03/26 00:06:37;;;;;;;17.40;12.70;;;;;;;11.01;95.94;98108.33;109246;1255;70159;-79
2023/03/26 00:09:06;;;;;;;15.60;12.50;;;;;;;11.07;95.84;98109.63;106882;1254;72537;-80
2023/03/26 00:11:37;;;;;;;16.70;14.40;;;;;;;11.12;95.64;98107.33;106386;1255;60528;-77
2023/03/26 00:14:08;;;;;;;16.20;13.50;;;;;;;11.13;95.46;98101.89;107720;1254;60446;-74
2023/03/26 00:16:35;;;;;;;15.10;13.40;;;;;;;11.14;95.57;98092.92;108070;1254;73910;-76
2023/03/26 00:19:02;;;;;;;18.70;14.70;;;;;;;11.12;95.63;98090.02;106307;1258;68554;-77
2023/03/26 00:21:30;;;;;;;17.50;14.20;;;;;;;11.15;95.53;98090.06;106601;1254;72005;-78
2023/03/26 00:24:05;;;;;;;20.00;16.30;;;;;;;11.18;95.15;98087.19;106484;1257;60622;-77
2023/03/26 00:26:33;;;;;;;19.60;14.70;;;;;;;11.16;95.46;98086.45;106026;1258;60395;-75
2023/03/26 00:29:02;;;;;;;18.70;14.70;;;;;;;11.19;95.20;98088.61;105797;1254;75250;-78
2023/03/26 00:31:30;;;;;;;16.30;14.20;;;;;;;11.21;95.02;98085.94;105951;1258;70448;-76
2023/03/26 00:34:02;;;;;;;18.50;14.20;;;;;;;11.16;95.26;98088.83;105896;1254;76067;-74
2023/03/26 00:36:30;;;;;;;16.80;14.60;;;;;;;11.19;94.97;98087.83;106061;1254;62931;-79
2023/03/26 00:38:57;;;;;;;21.10;18.40;;;;;;;11.21;95.10;98087.48;106025;1254;60627;-78
2023/03/26 00:41:29;;;;;;;25.80;21.00;;;;;;;11.15;95.54;98099.14;105746;1260;73659;-77
2023/03/26 00:43:57;;;;;;;27.80;21.80;;;;;;;11.13;95.01;98096.23;105941;1266;70618;-76
2023/03/26 00:46:27;;;;;;;21.90;18.90;;;;;;;11.17;94.60;98090.50;106109;1255;73903;-75
2023/03/26 00:48:58;;;;;;;23.30;19.90;;;;;;;11.17;93.67;98093.73;105895;1257;60411;-74
2023/03/26 00:51:26;;;;;;;21.90;18.20;;;;;;;11.14;93.56;98089.70;105667;1254;385900;-76
2023/03/26 00:55:59;;;;;;;20.60;18.50;;;;;;;11.16;93.34;98088.00;102899;1295;601062;-77
2023/03/26 00:58:28;;;;;;;22.90;19.00;;;;;;;11.08;93.55;98095.86;105183;1267;62231;-77
2023/03/26 01:00:59;;;;;;;23.00;18.70;;;;;;;11.09;93.77;98097.16;105144;1267;61296;-76
2023/03/26 01:03:33;;;;;;;21.10;17.60;;;;;;;11.11;93.46;98095.77;104970;1273;72237;-73
2023/03/26 01:06:06;;;;;;;18.80;15.90;;;;;;;11.06;93.84;98112.88;105712;1259;69875;-73
2023/03/26 01:08:46;;;;;;;19.30;16.00;;;;;;;11.00;93.81;98101.37;105515;1254;324883;-77
2023/03/26 01:11:19;;;;;;;18.00;14.80;;;;;;;10.98;94.16;98104.73;107969;1252;60991;-74
2023/03/26 01:13:55;;;;;;;16.10;13.70;;;;;;;10.94;94.16;98094.29;108201;1254;58515;-76
2023/03/26 01:16:37;;;;;;;16.80;14.50;;;;;;;10.96;94.33;98091.54;106391;1254;72412;-79
2023/03/26 01:19:32;;;;;;;15.90;13.70;;;;;;;10.89;94.58;98089.40;106561;1254;70385;-76
2023/03/26 01:22:01;;;;;;;15.00;12.10;;;;;;;10.90;94.83;98086.00;107891;1257;71663;-76
2023/03/26 01:24:30;;;;;;;13.30;11.20;;;;;;;10.94;94.67;98085.04;105933;1254;63264;-82
2023/03/26 01:27:26;;;;;;;13.60;12.00;;;;;;;10.94;94.42;98087.41;106037;1260;59650;-75
2023/03/26 01:30:06;;;;;;;12.10;10.80;;;;;;;10.86;94.92;98085.43;106170;1256;72553;-77
2023/03/26 01:32:42;;;;;;;11.80;10.50;;;;;;;10.88;94.68;98083.98;106059;1251;71164;-78
2023/03/26 01:35:34;;;;;;;12.80;11.50;;;;;;;10.89;94.63;98083.96;106371;1251;73014;-78
2023/03/26 01:38:23;;;;;;;11.00;9.00;;;;;;;10.86;94.98;98088.71;106246;1251;62733;-79
2023/03/26 01:40:59;;;;;;;12.40;9.70;;;;;;;10.90;94.68;98089.73;106430;1254;60015;-78
2023/03/26 01:43:31;;;;;;;11.00;9.80;;;;;;;10.91;94.84;98088.85;106334;1251;73001;-79
2023/03/26 01:46:01;;;;;;;10.60;9.50;;;;;;;10.87;94.95;98087.12;106201;1251;71671;-75
2023/03/26 01:48:35;;;;;;;8.80;8.00;;;;;;;10.84;95.16;98092.85;106452;1254;73463;-76
2023/03/26 01:51:04;;;;;;;8.60;7.70;;;;;;;10.92;94.94;98091.02;106446;1256;61182;-78
2023/03/26 01:53:34;;;;;;;9.10;8.00;;;;;;;10.98;95.08;98089.77;107078;1255;59895;-78
2023/03/26 01:56:11;;;;;;;10.40;8.60;;;;;;;10.95;95.23;98089.86;106356;1251;72088;-78
2023/03/26 01:59:07;;;;;;;8.90;8.00;;;;;;;10.92;95.48;98092.81;106091;1251;69349;-78
2023/03/26 02:01:46;;;;;;;7.10;6.40;;;;;;;10.93;95.50;98093.31;105905;1254;73594;-79
2023/03/26 02:04:25;;;;;;;9.20;6.70;;;;;;;10.84;95.89;98099.67;106042;1251;59858;-75
2023/03/26 02:07:04;;;;;;;5.20;4.40;;;;;;;10.73;96.49;98102.66;107395;1254;61461;-77
2023/03/26 02:09:41;;;;;;;2.70;2.50;;;;;;;10.68;95.85;98109.41;108974;1253;71945;-75
2023/03/26 02:12:15;;;;;;;3.00;2.20;;;;;;;10.60;95.03;98114.73;107329;1256;69803;-80
2023/03/26 02:14:44;;;;;;;2.10;1.70;;;;;;;10.45;95.11;98114.23;106149;1251;72912;-78
2023/03/26 02:17:12;;;;;;;1.50;1.30;;;;;;;10.32;95.11;98126.59;106176;1251;63618;-77
2023/03/26 02:19:41;;;;;;;2.10;1.30;;;;;;;10.29;95.35;98132.05;106261;1251;60904;-77
2023/03/26 02:22:14;;;;;;;1.20;1.10;;;;;;;10.25;95.22;98139.10;106161;1256;72219;-76
2023/03/26 02:24:44;;;;;;;1.60;0.90;;;;;;;10.10;95.37;98139.34;106161;1256;67993;-78
2023/03/26 02:27:17;;;;;;;0.90;0.90;;;;;;;10.01;95.77;98146.03;106021;1257;71902;-81
2023/03/26 02:29:46;;;;;;;1.30;1.20;;;;;;;9.98;95.64;98152.56;106091;1254;61206;-77
2023/03/26 02:32:18;;;;;;;1.00;0.90;;;;;;;9.95;96.65;98158.85;106025;1251;60191;-75
2023/03/26 02:34:46;;;;;;;0.90;0.90;;;;;;;9.89;96.52;98157.38;105970;1257;72880;-75
2023/03/26 02:37:17;;;;;;;0.90;0.80;;;;;;;9.92;95.97;98162.43;106124;1256;69453;-76
2023/03/26 02:39:47;;;;;;;1.20;1.10;;;;;;;9.93;95.87;98168.64;106194;1254;73947;-76
2023/03/26 02:42:30;;;;;;;2.80;1.50;;;;;;;9.86;95.66;98171.32;106157;1251;61564;-77
2023/03/26 02:44:59;;;;;;;2.30;1.00;;;;;;;9.80;95.48;98173.96;106159;1254;60431;-78
2023/03/26 02:47:46;;;;;;;1.60;1.10;;;;;;;9.83;95.01;98177.77;106488;1254;72722;-78
2023/03/26 02:50:44;;;;;;;1.20;1.00;;;;;;;9.79;95.02;98186.91;106399;1257;69377;-78
2023/03/26 02:53:31;;;;;;;1.10;1.00;;;;;;;9.72;94.87;98185.38;107971;1251;72371;-75
2023/03/26 02:56:26;;;;;;;1.90;1.10;;;;;;;9.77;95.14;98186.31;107577;1253;63000;-76
2023/03/26 02:59:12;;;;;;;1.30;1.20;;;;;;;9.82;94.71;98188.58;106252;1254;60344;-77
2023/03/26 03:01:42;;;;;;;1.20;1.10;;;;;;;9.75;93.93;98192.69;106157;1251;70769;-80
2023/03/26 03:04:11;;;;;;;2.90;1.60;;;;;;;9.69;94.01;98198.48;108454;1251;71249;-77
2023/03/26 03:06:43;;;;;;;2.20;1.00;;;;;;;9.74;94.07;98203.54;109075;1251;72646;-78
2023/03/26 03:09:12;;;;;;;1.20;1.10;;;;;;;9.74;94.29;98207.21;106451;1255;60471;-78
2023/03/26 03:11:43;;;;;;;2.00;1.10;;;;;;;9.68;93.80;98220.57;106246;1251;59579;-79
2023/03/26 03:14:11;;;;;;;2.10;1.30;;;;;;;9.61;93.35;98228.95;106491;1251;74657;-77
2023/03/26 03:16:42;;;;;;;1.80;1.00;;;;;;;9.62;93.52;98234.17;106322;1251;70486;-78
2023/03/26 03:19:11;;;;;;;1.20;1.10;;;;;;;9.58;93.82;98242.65;106345;1251;72588;-76
2023/03/26 03:21:45;;;;;;;;;;;;;;;9.52;93.87;98243.05;106037;1251;62855;-77
2023/03/26 03:24:17;;;;;;;2.50;1.30;;;;;;;9.53;92.75;98242.92;106103;1257;59625;-77
2023/03/26 03:26:49;;;;;;;1.30;1.10;;;;;;;9.50;92.85;98246.66;106209;1256;74223;-77
2023/03/26 03:29:32;;;;;;;2.60;1.40;;;;;;;9.42;93.26;98251.11;106367;1251;71162;-76
2023/03/26 03:32:23;;;;;;;4.60;2.10;;;;;;;9.33;93.11;98257.79;106346;1251;70497;-77
2023/03/26 03:34:55;;;;;;;3.10;1.60;;;;;;;9.34;92.79;98270.72;106309;1251;62100;-75
2023/03/26 03:37:25;;;;;;;4.20;2.60;;;;;;;9.31;92.56;98276.05;106335;1251;61599;-75
2023/03/26 03:39:55;;;;;;;4.30;2.90;;;;;;;9.20;92.70;98281.86;105975;1256;73343;-78
2023/03/26 03:42:26;;;;;;;2.00;1.40;;;;;;;9.13;92.43;98289.02;106075;1252;70719;-78
2023/03/26 03:44:56;;;;;;;5.20;2.60;;;;;;;9.13;92.30;98300.02;106071;1255;70296;-78
2023/03/26 03:47:52;;;;;;;2.30;1.50;;;;;;;9.06;92.13;98300.08;106116;1251;61284;-77
2023/03/26 03:50:26;;;;;;;3.80;1.40;;;;;;;8.91;92.07;98301.34;106224;1251;60414;-76
2023/03/26 03:53:24;;;;;;;4.30;1.90;;;;;;;8.87;92.64;98300.67;106128;1251;71333;-76
2023/03/26 03:56:16;;;;;;;2.50;1.70;;;;;;;8.85;92.89;98301.76;106623;1260;71446;-75
2023/03/26 03:59:10;;;;;;;2.70;1.60;;;;;;;8.78;92.90;98306.64;107474;1251;72011;-76
2023/03/26 04:01:42;;;;;;;4.70;1.50;;;;;;;8.77;92.60;98308.38;108910;1251;61968;-77
2023/03/26 04:04:16;;;;;;;3.30;1.70;;;;;;;8.83;92.77;98305.29;107808;1253;60011;-75
2023/03/26 04:06:52;;;;;;;3.60;2.00;;;;;;;8.84;92.96;98311.73;106292;1257;73135;-74
2023/03/26 04:09:20;;;;;;;3.60;2.10;;;;;;;8.80;92.58;98316.49;106010;1256;69272;-76
2023/03/26 04:11:49;;;;;;;4.40;1.60;;;;;;;8.79;92.27;98318.56;106123;1251;72360;-77
2023/03/26 04:14:35;;;;;;;2.90;2.30;;;;;;;8.84;92.19;98321.48;106040;1251;61040;-75
2023/03/26 04:17:14;;;;;;;3.40;1.90;;;;;;;8.79;91.93;98319.66;106077;1251;60296;-75
2023/03/26 04:19:43;;;;;;;4.60;2.00;;;;;;;8.74;92.63;98323.13;106057;1251;72619;-74
2023/03/26 04:22:12;;;;;;;3.40;1.90;;;;;;;8.75;92.46;98327.87;106201;1251;69963;-74
2023/03/26 04:24:49;;;;;;;3.60;2.20;;;;;;;8.83;92.43;98331.67;106453;1251;70718;-73
2023/03/26 04:27:30;;;;;;;4.00;2.60;;;;;;;8.82;92.18;98332.81;106289;1254;59656;-76
2023/03/26 04:30:14;;;;;;;4.00;2.10;;;;;;;8.75;92.17;98333.54;106213;1251;60664;-76
2023/03/26 04:32:45;;;;;;;6.30;2.30;;;;;;;8.82;92.21;98338.15;106037;1251;73744;-76
2023/03/26 04:35:15;;;;;;;3.60;1.90;;;;;;;8.87;91.92;98340.84;106059;1251;70948;-78
2023/03/26 04:37:51;;;;;;;4.20;1.80;;;;;;;8.84;91.71;98345.22;105979;1254;73641;-76
2023/03/26 04:40:29;;;;;;;4.50;1.80;;;;;;;8.81;91.23;98347.23;106060;1253;62691;-78
2023/03/26 04:43:16;;;;;;;3.60;2.60;;;;;;;8.85;91.15;98351.70;106063;1258;61373;-79
2023/03/26 04:46:04;;;;;;;5.10;2.40;;;;;;;8.82;91.64;98350.82;106135;1256;73978;-79
2023/03/26 04:48:37;;;;;;;4.60;2.20;;;;;;;8.82;91.98;98355.09;106327;1253;69967;-76
2023/03/26 04:51:08;;;;;;;2.80;2.10;;;;;;;8.88;91.45;98358.95;106344;1254;71954;-78
2023/03/26 04:53:39;;;;;;;3.60;2.30;;;;;;;8.94;90.82;98366.20;106252;1256;60725;-81
2023/03/26 04:56:42;;;;;;;5.20;2.50;;;;;;;8.84;90.10;98358.70;108675;1253;60636;-79
2023/03/26 04:59:40;;;;;;;3.40;2.10;;;;;;;8.80;90.54;98358.79;108711;1253;71724;-77
2023/03/26 05:02:14;;;;;;;4.10;2.20;;;;;;;8.90;89.91;98363.64;107947;1254;70065;-80
2023/03/26 05:04:49;;;;;;;4.20;2.40;;;;;;;8.93;89.51;98370.31;106868;1251;71182;-80
2023/03/26 05:07:21;;;;;;;3.40;2.40;;;;;;;8.90;89.65;98363.27;106274;1252;61406;-81
2023/03/26 05:09:53;;;;;;;3.50;2.20;;;;;;;8.86;89.78;98363.97;106456;1252;61378;-79
2023/03/26 05:12:43;;;;;;;3.10;2.30;;;;;;;8.93;89.16;98370.14;106460;1255;73714;-76
2023/03/26 05:15:25;;;;;;;2.40;2.10;;;;;;;8.96;89.19;98370.52;106327;1251;70159;-76
2023/03/26 05:18:15;;;;;;;3.40;2.10;;;;;;;8.92;89.34;98373.60;106393;1251;72779;-78
2023/03/26 05:20:47;;;;;;;3.00;1.80;;;;;;;8.92;88.93;98372.09;106132;1251;63170;-76
2023/03/26 05:23:18;;;;;;;3.80;2.10;;;;;;;8.99;88.91;98373.29;106410;1256;60322;-80
2023/03/26 05:25:53;;;;;;;3.40;1.80;;;;;;;9.06;89.04;98378.98;106473;1255;74784;-82
2023/03/26 05:28:25;;;;;;;4.00;2.00;;;;;;;9.05;88.60;98385.27;106264;1251;70436;-81
2023/03/26 05:31:22;;;;;;;4.90;2.10;;;;;;;8.96;87.68;98390.78;106451;1251;71716;-78
2023/03/26 05:33:54;;;;;;;4.60;2.00;;;;;;;8.96;87.43;98396.98;106903;1251;61069;-78
2023/03/26 05:36:27;;;;;;;2.60;1.90;;;;;;;8.92;87.90;98396.09;106437;1254;61521;-79
2023/03/26 05:39:24;;;;;;;3.90;2.50;;;;;;;8.86;87.95;98397.47;106201;1257;72046;-78
2023/03/26 05:41:55;;;;;;;2.90;2.30;;;;;;;8.86;88.04;98397.50;106586;1251;70991;-79
2023/03/26 05:44:32;;;;;;;3.70;2.20;;;;;;;8.91;88.02;98404.35;106211;1251;72285;-78
2023/03/26 05:47:04;;;;;;;3.30;2.60;;;;;;;8.84;88.43;98410.23;106933;1253;61089;-80
2023/03/26 05:49:33;;;;;;;4.00;2.30;;;;;;;8.75;89.15;98411.90;108779;1254;59314;-80
2023/03/26 05:52:04;;;;;;;4.50;2.60;;;;;;;8.77;89.24;98409.32;108363;1252;73412;-82
2023/03/26 05:54:53;;;;;;;4.30;2.70;;;;;;;8.84;89.38;98408.15;109776;1252;70300;-81
2023/03/26 05:57:51;;;;;;;6.30;2.60;;;;;;;8.82;89.81;98408.15;109630;1255;72685;-81
2023/03/26 06:00:42;;;;;;;3.50;2.30;;;;;;;8.83;90.08;98405.92;109655;1251;60653;-79
2023/03/26 06:03:11;;;;;;;2.30;1.70;;;;;;;8.92;89.84;98408.10;109562;1251;59121;-80
2023/03/26 06:06:15;;;;;;;3.70;1.90;;;;;;;8.97;89.76;98405.45;109572;1253;72772;-77
2023/03/26 06:08:51;;;;;;;3.80;2.30;;;;;;;8.98;90.34;98409.10;109643;1251;70075;-75
2023/03/26 06:11:30;;;;;;;4.00;2.20;;;;;;;8.99;89.57;98406.42;109610;1251;72636;-76
2023/03/26 06:14:42;;;;;;;3.40;2.30;;;;;;;9.11;89.08;98402.32;109738;1251;61064;-76
2023/03/26 06:17:18;;;;;;;4.00;2.50;;;;;;;9.16;89.30;98403.64;109741;1251;60521;-76
2023/03/26 06:20:06;;;;;;;3.50;2.00;;;;;;;9.16;89.01;98404.94;109798;1251;74145;-75
2023/03/26 06:22:42;;;;;;;4.50;2.00;;;;;;;9.17;88.99;98402.42;109513;1253;69261;-76
2023/03/26 06:25:22;;;;;;;3.60;2.00;;;;;;;9.32;88.66;98408.80;109281;1252;71041;-77
2023/03/26 06:28:14;;;;;;;4.30;2.50;;;;;;;9.38;88.97;98409.79;109506;1254;58462;-79
2023/03/26 06:30:58;;;;;;;4.00;2.70;;;;;;;9.43;87.87;98408.56;109504;1253;60015;-79
2023/03/26 06:33:52;;;;;;;5.00;2.40;;;;;;;9.51;87.26;98401.15;109291;1254;72594;-77
2023/03/26 06:36:20;;;;;;;2.60;2.00;;;;;;;9.66;86.78;98400.17;109190;1254;70239;-75
2023/03/26 06:38:50;;;;;;;4.80;2.40;;;;;;;9.75;85.78;98399.98;109477;1254;71717;-77
2023/03/26 06:41:18;;;;;;;4.80;2.20;;;;;;;9.76;86.17;98402.36;109383;1252;59677;-77
2023/03/26 06:43:59;;;;;;;3.40;1.80;;;;;;;9.79;85.77;98403.20;109502;1253;59374;-75
2023/03/26 06:46:47;;;;;;;2.70;1.80;;;;;;;9.97;85.23;98406.39;109578;1253;72828;-77
2023/03/26 06:49:36;;;;;;;3.40;1.90;;;;;;;10.04;83.95;98402.27;109402;1252;69381;-76
2023/03/26 06:52:40;;;;;;;4.60;2.10;;;;;;;10.05;83.10;98398.64;109079;1253;71460;-75
2023/03/26 06:55:23;;;;;;;3.70;1.80;;;;;;;10.11;81.84;98404.74;109493;1252;61423;-76
2023/03/26 06:58:17;;;;;;;3.00;2.00;;;;;;;10.22;81.20;98402.58;108931;1252;59339;-76
2023/03/26 07:01:05;;;;;;;3.40;2.10;;;;;;;10.22;80.75;98403.27;107941;1256;72561;-78
2023/03/26 07:03:52;;;;;;;4.50;2.50;;;;;;;10.24;81.22;98400.27;108389;1256;69205;-80
2023/03/26 07:06:39;;;;;;;2.40;2.00;;;;;;;10.34;81.39;98401.82;109051;1252;72711;-78
2023/03/26 07:09:29;;;;;;;3.00;1.70;;;;;;;10.49;79.33;98402.38;109312;1253;60531;-77
2023/03/26 07:12:16;;;;;;;3.20;1.60;;;;;;;10.49;78.69;98402.90;109381;1252;59732;-78
2023/03/26 07:15:13;;;;;;;4.80;3.00;;;;;;;10.47;78.72;98402.31;108526;1254;75057;-79
2023/03/26 07:17:52;;;;;;;2.30;1.60;;;;;;;10.55;79.51;98400.52;108377;1253;69456;-77
2023/03/26 07:20:32;;;;;;;2.80;1.60;;;;;;;10.72;77.36;98399.97;109191;1253;72625;-78
2023/03/26 07:23:01;;;;;;;4.40;2.20;;;;;;;10.78;77.56;98405.14;108929;1253;60462;-80
2023/03/26 07:25:58;;;;;;;3.60;2.70;;;;;;;10.76;77.80;98402.23;108891;1252;60418;-80
2023/03/26 07:28:39;;;;;;;4.10;2.40;;;;;;;10.76;77.91;98405.81;107441;1253;73972;-81
2023/03/26 07:32:08;;;;;;;5.70;1.90;;;;;;;10.89;77.01;98408.79;108914;1254;69416;-79
2023/03/26 07:34:48;;;;;;;4.20;2.30;;;;;;;10.92;76.88;98418.27;107188;1254;71404;-78
2023/03/26 07:38:21;;;;;;;3.00;2.00;;;;;;;10.88;77.07;98414.99;107652;1252;60355;-77
2023/03/26 07:41:34;;;;;;;4.00;2.00;;;;;;;10.85;77.08;98408.81;109604;1251;60279;-77
2023/03/26 07:44:54;;;;;;;4.00;2.60;;;;;;;10.96;76.97;98424.65;107751;1259;74546;-77
2023/03/26 07:47:43;;;;;;;4.70;2.60;;;;;;;10.94;76.72;98428.16;107962;1259;69416;-78
2023/03/26 07:50:27;;;;;;;3.50;2.30;;;;;;;10.89;77.23;98418.27;107842;1253;72436;-79
2023/03/26 07:53:09;;;;;;;4.00;2.40;;;;;;;10.91;77.82;98421.79;106262;1259;60660;-78
2023/03/26 07:56:25;;;;;;;3.60;2.40;;;;;;;11.08;77.25;98425.40;106087;1253;60617;-77
2023/03/26 07:59:21;;;;;;;4.40;2.50;;;;;;;11.19;76.84;98433.38;106042;1254;73856;-77
2023/03/26 08:02:34;;;;;;;3.30;2.20;;;;;;;11.31;76.51;98430.92;106094;1256;70542;-82
2023/03/26 08:05:24;;;;;;;3.40;2.10;;;;;;;11.41;76.10;98429.52;105924;1259;70866;-76
2023/03/26 08:08:38;;;;;;;5.50;2.20;;;;;;;11.62;75.60;98431.39;106172;1254;61222;-78
2023/03/26 08:11:28;;;;;;;3.00;2.50;;;;;;;11.73;74.86;98425.77;106680;1256;60310;-80
2023/03/26 08:14:17;;;;;;;5.20;2.80;;;;;;;11.82;73.94;98438.27;106898;1256;74776;-77
2023/03/26 08:16:51;;;;;;;4.40;2.70;;;;;;;11.82;72.53;98439.95;106399;1254;71565;-79
2023/03/26 08:19:44;;;;;;;5.60;3.00;;;;;;;11.79;73.10;98441.96;106274;1254;72643;-79
2023/03/26 08:22:16;;;;;;;4.40;3.00;;;;;;;11.83;72.20;98447.66;107029;1253;63217;-80
2023/03/26 08:25:03;;;;;;;5.70;2.70;;;;;;;11.88;72.29;98445.38;107234;1254;60453;-78
2023/03/26 08:27:39;;;;;;;4.70;3.10;;;;;;;11.88;72.24;98450.02;106826;1253;73257;-80
2023/03/26 08:30:13;;;;;;;3.50;2.50;;;;;;;11.85;71.16;98450.96;106256;1257;68057;-79
2023/03/26 08:32:43;;;;;;;4.60;2.90;;;;;;;11.81;72.13;98433.89;106175;1254;73907;-77
2023/03/26 08:35:14;;;;;;;3.40;2.30;;;;;;;11.91;72.20;98434.30;106536;1254;63051;-77
2023/03/26 08:37:44;;;;;;;3.90;3.00;;;;;;;12.11;72.08;98428.52;106154;1259;60442;-77
2023/03/26 08:40:12;;;;;;;4.00;2.80;;;;;;;12.23;72.27;98431.11;106226;1256;74173;-79
2023/03/26 08:43:22;;;;;;;4.40;3.20;;;;;;;12.34;71.53;98437.91;107042;1254;70522;-76
2023/03/26 08:46:02;;;;;;;4.80;3.20;;;;;;;12.41;71.72;98432.18;108814;1252;72639;-77
2023/03/26 08:49:00;;;;;;;5.60;3.70;;;;;;;12.45;70.67;98431.70;107614;1254;60366;-74
2023/03/26 08:52:15;;;;;;;7.50;3.80;;;;;;;12.46;70.82;98429.77;106752;1252;60424;-78
2023/03/26 08:54:47;;;;;;;5.10;3.70;;;;;;;12.62;70.18;98428.35;106461;1256;72721;-75
2023/03/26 08:57:43;;;;;;;6.60;4.70;;;;;;;12.66;69.77;98429.56;106431;1259;69342;-79
2023/03/26 09:00:16;;;;;;;6.60;5.10;;;;;;;12.62;70.05;98426.29;106300;1257;72047;-79
2023/03/26 09:03:40;;;;;;;8.10;5.40;;;;;;;12.59;70.66;98425.44;106549;1254;60508;-79
2023/03/26 09:06:33;;;;;;;5.60;5.10;;;;;;;12.67;70.84;98425.90;105733;1265;61095;-81
2023/03/26 09:09:31;;;;;;;7.60;5.80;;;;;;;12.77;69.84;98430.71;106199;1253;73482;-79
2023/03/26 09:12:19;;;;;;;7.60;6.80;;;;;;;12.79;69.91;98431.33;106202;1258;71222;-78
2023/03/26 09:15:10;;;;;;;9.30;6.80;;;;;;;12.78;69.97;98434.68;106152;1253;72905;-80
2023/03/26 09:18:15;;;;;;;7.40;6.30;;;;;;;12.78;69.29;98436.48;106279;1254;60530;-79
2023/03/26 09:21:10;;;;;;;8.70;6.90;;;;;;;12.80;69.59;98435.50;106189;1254;60601;-78
2023/03/26 09:24:08;;;;;;;9.30;7.80;;;;;;;12.91;69.11;98435.83;106005;1253;71689;-77
2023/03/26 09:26:58;;;;;;;8.50;6.30;;;;;;;13.03;69.08;98430.95;105955;1254;70882;-77
2023/03/26 09:29:51;;;;;;;7.70;6.10;;;;;;;13.15;68.05;98432.64;106031;1254;71081;-77
2023/03/26 09:32:44;;;;;;;8.40;6.90;;;;;;;13.30;67.92;98430.48;106210;1256;60855;-80
2023/03/26 09:35:40;;;;;;;12.00;7.90;;;;;;;13.31;68.15;98428.80;106279;1254;60362;-78
2023/03/26 09:38:39;;;;;;;9.00;7.80;;;;;;;13.26;67.68;98429.68;107437;1259;73480;-79
2023/03/26 09:41:43;;;;;;;8.30;7.30;;;;;;;13.10;67.60;98430.05;108987;1253;68079;-82
2023/03/26 09:44:20;;;;;;;10.40;8.90;;;;;;;12.93;68.55;98433.28;108906;1254;72433;-79
2023/03/26 09:47:33;;;;;;;9.80;8.40;;;;;;;12.80;68.99;98432.59;109247;1251;58432;-81
2023/03/26 09:50:36;;;;;;;10.10;7.60;;;;;;;12.69;69.44;98434.98;108875;1252;60585;-78
2023/03/26 09:53:30;;;;;;;9.20;7.80;;;;;;;12.70;70.22;98433.02;107147;1252;72591;-79
2023/03/26 09:56:43;;;;;;;7.90;7.10;;;;;;;12.65;70.85;98433.83;106236;1254;70135;-80
2023/03/26 09:59:34;;;;;;;10.60;8.20;;;;;;;12.55;71.01;98435.42;106754;1254;73849;-79
2023/03/26 10:02:26;;;;;;;10.80;8.10;;;;;;;12.45;71.41;98436.47;107698;1252;60437;-79
2023/03/26 10:05:33;;;;;;;9.40;7.00;;;;;;;12.43;71.89;98438.33;108030;1253;61000;-80
2023/03/26 10:08:28;;;;;;;9.70;7.90;;;;;;;12.56;72.13;98433.29;107448;1252;73318;-84
2023/03/26 10:11:09;;;;;;;12.70;7.70;;;;;;;12.58;72.37;98425.90;107244;1253;69984;-82
2023/03/26 10:13:41;;;;;;;9.10;8.20;;;;;;;12.60;72.13;98431.71;106628;1254;71979;-85
2023/03/26 10:16:31;;;;;;;9.10;8.20;;;;;;;12.54;71.55;98432.16;107529;1254;60342;-85
2023/03/26 10:19:38;;;;;;;9.90;8.80;;;;;;;12.43;71.33;98434.70;106604;1255;60589;-79
2023/03/26 10:22:25;;;;;;;10.70;8.20;;;;;;;12.34;71.52;98435.48;106393;1254;73524;-80
2023/03/26 10:25:35;;;;;;;8.80;7.90;;;;;;;12.32;71.50;98438.65;106330;1254;69828;-77
2023/03/26 10:28:17;;;;;;;10.80;8.30;;;;;;;12.26;71.13;98443.30;106278;1259;73780;-77
2023/03/26 10:31:13;;;;;;;11.00;8.70;;;;;;;12.10;71.94;98444.17;106176;1254;60543;-75
2023/03/26 10:34:05;;;;;;;10.90;9.30;;;;;;;11.98;72.55;98442.65;106109;1253;60434;-74
2023/03/26 10:36:35;;;;;;;10.30;9.10;;;;;;;11.90;73.76;98445.32;106073;1253;74111;-76
2023/03/26 10:39:15;;;;;;;9.80;8.70;;;;;;;11.88;75.01;98443.39;106209;1256;71418;-76
2023/03/26 10:42:28;;;;;;;11.10;9.00;;;;;;;11.85;75.72;98444.73;106352;1256;73387;-74
2023/03/26 10:45:30;;;;;;;10.20;8.60;;;;;;;11.77;76.47;98452.16;106168;1251;61788;-75
2023/03/26 10:48:14;;;;;;;13.90;10.10;;;;;;;11.68;77.14;98457.75;106153;1254;61465;-75
2023/03/26 10:50:49;;;;;;;10.00;8.50;;;;;;;11.69;77.64;98457.63;106005;1255;72033;-74
2023/03/26 10:53:38;;;;;;;11.40;8.10;;;;;;;11.87;77.71;98456.37;106091;1254;69596;-76
2023/03/26 10:56:32;;;;;;;9.40;8.30;;;;;;;12.16;77.33;98450.53;105961;1254;73354;-76
2023/03/26 10:59:05;;;;;;;9.10;8.20;;;;;;;12.58;76.46;98441.77;105851;1253;61268;-75
2023/03/26 11:02:10;;;;;;;11.50;9.50;;;;;;;12.99;74.54;98443.08;105838;1253;60741;-76
2023/03/26 11:04:39;;;;;;;;;;;;;;;13.43;72.58;98433.75;105771;1258;74193;-74
2023/03/26 11:07:27;;;;;;;9.10;7.90;;;;;;;13.78;70.41;98430.07;105949;1254;71344;-74
2023/03/26 11:10:03;;;;;;;8.90;7.70;;;;;;;13.99;68.85;98427.55;105885;1254;72891;-76
2023/03/26 11:12:48;;;;;;;8.50;7.20;;;;;;;14.14;67.71;98434.11;106103;1254;60438;-76
2023/03/26 11:15:34;;;;;;;8.00;6.70;;;;;;;14.22;66.16;98430.98;106064;1254;61053;-75
2023/03/26 11:18:26;;;;;;;8.30;7.30;;;;;;;14.16;65.93;98426.34;105995;1254;74883;-73
2023/03/26 11:21:12;;;;;;;10.00;7.30;;;;;;;14.08;66.30;98423.50;106121;1254;69366;-73
2023/03/26 11:24:25;;;;;;;8.40;7.00;;;;;;;14.02;66.45;98422.13;106004;1253;71020;-76
2023/03/26 11:26:55;;;;;;;8.00;6.50;;;;;;;13.94;66.67;98417.09;106134;1254;60543;-75
2023/03/26 11:29:43;;;;;;;6.70;5.30;;;;;;;13.86;66.39;98417.61;106052;1253;60529;-75
2023/03/26 11:32:14;;;;;;;6.80;6.20;;;;;;;13.77;65.94;98417.83;106076;1256;72824;-74
2023/03/26 11:34:51;;;;;;;6.50;5.90;;;;;;;13.63;65.52;98422.32;106089;1255;69332;-75
2023/03/26 11:37:31;;;;;;;7.10;5.40;;;;;;;13.49;66.50;98418.89;106200;1254;71129;-75
2023/03/26 11:40:05;;;;;;;7.80;7.00;;;;;;;13.41;66.90;98413.41;106073;1254;60527;-73
2023/03/26 11:42:34;;;;;;;7.20;5.70;;;;;;;13.39;66.79;98413.64;106022;1254;61634;-75
2023/03/26 11:45:07;;;;;;;5.80;5.10;;;;;;;13.46;66.84;98412.23;105933;1259;73382;-74
2023/03/26 11:47:56;;;;;;;6.30;5.30;;;;;;;13.57;66.31;98416.67;105823;1259;68653;-74
2023/03/26 11:50:26;;;;;;;4.90;4.40;;;;;;;13.67;65.62;98414.01;105923;1254;71754;-75
2023/03/26 11:53:05;;;;;;;5.50;4.40;;;;;;;13.70;64.74;98410.02;105896;1253;61549;-76
2023/03/26 11:55:34;;;;;;;6.10;4.60;;;;;;;13.69;64.35;98411.39;105836;1259;60653;-74
2023/03/26 11:58:10;;;;;;;;;;;;;;;13.59;63.68;98402.55;105887;1259;74351;-75
2023/03/26 12:00:39;;;;;;;5.30;3.90;;;;;;;13.54;64.79;98401.92;105923;1254;71282;-73
2023/03/26 12:03:10;;;;;;;7.50;4.70;;;;;;;13.61;64.26;98399.25;106020;1254;74122;-74
2023/03/26 12:05:47;;;;;;;5.20;4.40;;;;;;;13.72;64.53;98403.48;105849;1254;60556;-74
2023/03/26 12:08:20;;;;;;;6.20;4.30;;;;;;;13.76;64.20;98403.77;106141;1253;60439;-75
2023/03/26 12:10:57;;;;;;;4.50;3.70;;;;;;;13.80;63.99;98401.68;105905;1257;72657;-75
2023/03/26 12:13:36;;;;;;;5.00;3.20;;;;;;;13.87;63.21;98400.61;105991;1254;70344;-74
2023/03/26 12:16:17;;;;;;;5.90;3.50;;;;;;;13.94;62.91;98397.41;105779;1254;73553;-76
2023/03/26 12:18:56;;;;;;;5.90;3.60;;;;;;;14.10;62.56;98397.44;105984;1260;60407;-74
2023/03/26 12:21:26;;;;;;;5.10;3.90;;;;;;;14.28;62.47;98390.02;106166;1254;61501;-72
2023/03/26 12:23:59;;;;;;;5.50;3.90;;;;;;;14.54;61.51;98384.97;106123;1259;73245;-75
2023/03/26 12:26:33;;;;;;;5.10;3.70;;;;;;;14.64;61.09;98383.01;105926;1262;68506;-75
2023/03/26 12:29:17;;;;;;;3.60;3.00;;;;;;;14.64;60.72;98381.60;106425;1256;73986;-74
2023/03/26 12:32:13;;;;;;;6.00;3.70;;;;;;;14.58;61.29;98382.42;106153;1254;60533;-73
2023/03/26 12:34:42;;;;;;;7.00;3.20;;;;;;;14.46;59.80;98382.02;106068;1258;60451;-74
2023/03/26 12:37:32;;;;;;;7.40;4.10;;;;;;;14.26;60.33;98380.64;105909;1253;72971;-72